Time;durP1;ratioP1;P1;durP2;ratioP2;P2;SDS_P1;SDS_P2;PMS_P1;PMS_P2;Temp;Humidity;BMP_temperature;BMP_pressure;BME280_temperature;BME280_humidity;BME280_pressure;Samples;Min_cycle;Max_cycle;Signal;HPM_P1;HPM_P2
2022/03/23 00:01:37;;;;;;;14.70;10.90;;;;;;;;;;5078976;28;20702;-77
2022/03/23 00:04:05;;;;;;;14.48;10.35;;;;;;;;;;5089868;28;20194;-76
2022/03/23 00:06:32;;;;;;;17.98;12.00;;;;;;;;;;5091216;28;20570;-77
2022/03/23 00:09:00;;;;;;;12.40;9.88;;;;;;;;;;5090232;28;20201;-77
2022/03/23 00:11:27;;;;;;;12.35;9.73;;;;;;;;;;5091774;28;20297;-76
2022/03/23 00:13:54;;;;;;;11.57;9.73;;;;;;;;;;5088441;28;20193;-77
2022/03/23 00:16:21;;;;;;;15.50;11.07;;;;;;;;;;5089016;28;20685;-77
2022/03/23 00:18:50;;;;;;;11.95;9.98;;;;;;;;;;5090812;28;20201;-79
2022/03/23 00:21:17;;;;;;;15.50;10.80;;;;;;;;;;5090520;28;20554;-77
2022/03/23 00:23:45;;;;;;;15.52;10.60;;;;;;;;;;5090519;28;20213;-77
2022/03/23 00:26:13;;;;;;;13.05;10.57;;;;;;;;;;5090709;28;20204;-76
2022/03/23 00:28:41;;;;;;;13.02;10.13;;;;;;;;;;5091448;28;20205;-77
2022/03/23 00:31:08;;;;;;;14.90;10.20;;;;;;;;;;5089792;28;20194;-77
2022/03/23 00:33:35;;;;;;;11.18;9.40;;;;;;;;;;5088004;28;20308;-77
2022/03/23 00:36:04;;;;;;;16.10;9.93;;;;;;;;;;5089128;28;20693;-79
2022/03/23 00:38:32;;;;;;;15.25;11.02;;;;;;;;;;5072700;28;20548;-78
2022/03/23 00:40:59;;;;;;;13.00;10.25;;;;;;;;;;5090453;28;20201;-77
2022/03/23 00:43:26;;;;;;;13.90;10.63;;;;;;;;;;5090487;28;20746;-78
2022/03/23 00:45:53;;;;;;;12.25;10.13;;;;;;;;;;5073223;28;20284;-76
2022/03/23 00:48:20;;;;;;;14.25;10.20;;;;;;;;;;5091740;28;20205;-77
2022/03/23 00:50:48;;;;;;;14.00;10.80;;;;;;;;;;5092155;28;20209;-77
2022/03/23 00:53:17;;;;;;;11.98;10.15;;;;;;;;;;5090661;28;20217;-77
2022/03/23 00:55:44;;;;;;;14.77;10.40;;;;;;;;;;5087934;28;20563;-78
2022/03/23 00:58:11;;;;;;;12.23;10.27;;;;;;;;;;5088626;28;20558;-77
2022/03/23 01:00:41;;;;;;;13.05;9.43;;;;;;;;;;5090311;28;20204;-77
2022/03/23 01:03:09;;;;;;;13.00;10.27;;;;;;;;;;5090118;28;20728;-77
2022/03/23 01:05:37;;;;;;;15.07;10.50;;;;;;;;;;5090505;28;20243;-79
2022/03/23 01:08:04;;;;;;;12.15;9.90;;;;;;;;;;5090807;28;20201;-76
2022/03/23 01:10:34;;;;;;;11.52;9.40;;;;;;;;;;5091555;28;20562;-76
2022/03/23 01:13:01;;;;;;;11.90;9.75;;;;;;;;;;5092225;28;20304;-79
2022/03/23 01:15:29;;;;;;;15.75;10.50;;;;;;;;;;5091239;28;20217;-76
2022/03/23 01:17:56;;;;;;;13.30;9.93;;;;;;;;;;5088107;28;20186;-76
2022/03/23 01:20:24;;;;;;;16.65;11.52;;;;;;;;;;5088530;28;20194;-77
2022/03/23 01:22:51;;;;;;;11.65;10.45;;;;;;;;;;5089897;28;20652;-77
2022/03/23 01:25:19;;;;;;;13.73;9.90;;;;;;;;;;5093268;28;20229;-77
2022/03/23 01:27:48;;;;;;;13.75;10.18;;;;;;;;;;5094076;28;20201;-78
2022/03/23 01:30:16;;;;;;;12.55;10.40;;;;;;;;;;5076305;28;20635;-78
2022/03/23 01:32:44;;;;;;;15.55;10.55;;;;;;;;;;5073468;28;20231;-76
2022/03/23 01:35:11;;;;;;;18.33;11.27;;;;;;;;;;5075519;28;20222;-77
2022/03/23 01:37:39;;;;;;;14.85;10.80;;;;;;;;;;5075572;28;20209;-77
2022/03/23 01:40:07;;;;;;;16.98;10.98;;;;;;;;;;5072671;28;20209;-76
2022/03/23 01:42:34;;;;;;;16.58;10.65;;;;;;;;;;5091477;28;20209;-77
2022/03/23 01:45:03;;;;;;;14.98;11.73;;;;;;;;;;5093440;28;20532;-78
2022/03/23 01:47:30;;;;;;;15.68;11.25;;;;;;;;;;5075557;28;20193;-76
2022/03/23 01:49:57;;;;;;;14.35;10.98;;;;;;;;;;5093715;28;20206;-77
2022/03/23 01:52:26;;;;;;;15.63;12.20;;;;;;;;;;5076219;28;20228;-78
2022/03/23 01:54:53;;;;;;;14.48;11.73;;;;;;;;;;5072594;28;20579;-77
2022/03/23 01:57:22;;;;;;;15.48;12.70;;;;;;;;;;5057306;28;20206;-77
2022/03/23 01:59:49;;;;;;;13.57;12.00;;;;;;;;;;5075072;28;20201;-78
2022/03/23 02:02:17;;;;;;;15.85;12.00;;;;;;;;;;5069789;28;20205;-77
2022/03/23 02:04:45;;;;;;;18.23;11.90;;;;;;;;;;5090841;28;20617;-76
2022/03/23 02:07:14;;;;;;;15.35;10.70;;;;;;;;;;5092997;28;20204;-77
2022/03/23 02:09:41;;;;;;;16.30;11.30;;;;;;;;;;5092765;28;20239;-78
2022/03/23 02:12:09;;;;;;;19.90;12.07;;;;;;;;;;5075392;28;20224;-79
2022/03/23 02:14:37;;;;;;;17.85;12.32;;;;;;;;;;5075813;28;20223;-77
2022/03/23 02:17:05;;;;;;;14.45;11.23;;;;;;;;;;5093582;28;20194;-75
2022/03/23 02:19:33;;;;;;;17.08;11.50;;;;;;;;;;5095049;28;20208;-77
2022/03/23 02:22:02;;;;;;;13.45;11.07;;;;;;;;;;5094833;28;20228;-78
2022/03/23 02:24:30;;;;;;;15.70;11.25;;;;;;;;;;5091916;28;20529;-77
2022/03/23 02:26:57;;;;;;;15.65;11.90;;;;;;;;;;5090695;28;20202;-78
2022/03/23 02:29:26;;;;;;;15.05;11.43;;;;;;;;;;5092010;28;20199;-79
2022/03/23 02:31:53;;;;;;;15.15;10.90;;;;;;;;;;5092513;28;20224;-77
2022/03/23 02:34:20;;;;;;;13.68;11.45;;;;;;;;;;5092286;28;20539;-77
2022/03/23 02:36:47;;;;;;;16.38;12.35;;;;;;;;;;5074807;28;20232;-76
2022/03/23 02:39:16;;;;;;;18.67;13.80;;;;;;;;;;5093024;28;20197;-78
2022/03/23 02:41:43;;;;;;;19.15;12.10;;;;;;;;;;5094588;28;20193;-76
2022/03/23 02:44:14;;;;;;;17.05;12.60;;;;;;;;;;5094471;28;20197;-77
2022/03/23 02:46:42;;;;;;;15.63;11.52;;;;;;;;;;5092274;28;20243;-78
2022/03/23 02:49:09;;;;;;;18.45;12.98;;;;;;;;;;5071450;28;20197;-77
2022/03/23 02:51:36;;;;;;;16.17;12.35;;;;;;;;;;5072720;28;20200;-77
2022/03/23 03:02:19;;;;;;;13.88;11.80;;;;;;;;;;5091327;28;20318;-78
2022/03/23 03:04:46;;;;;;;17.48;12.50;;;;;;;;;;5093982;28;20197;-77
2022/03/23 03:07:14;;;;;;;17.02;12.48;;;;;;;;;;5094195;28;20200;-77
2022/03/23 03:09:41;;;;;;;13.40;11.73;;;;;;;;;;5091106;28;20194;-77
2022/03/23 03:12:11;;;;;;;17.95;11.65;;;;;;;;;;5089436;28;20221;-76
2022/03/23 03:14:39;;;;;;;17.75;12.38;;;;;;;;;;5091038;28;20289;-77
2022/03/23 03:17:07;;;;;;;15.65;12.13;;;;;;;;;;5073576;28;20221;-77
2022/03/23 03:19:34;;;;;;;14.57;11.27;;;;;;;;;;5073997;28;20193;-77
2022/03/23 03:22:02;;;;;;;19.85;12.73;;;;;;;;;;5091947;28;20311;-76
2022/03/23 03:24:29;;;;;;;15.85;11.77;;;;;;;;;;5091749;28;20257;-76
2022/03/23 03:26:57;;;;;;;18.52;12.60;;;;;;;;;;5075604;28;20215;-78
2022/03/23 03:29:26;;;;;;;18.67;12.57;;;;;;;;;;5093817;28;20197;-77
2022/03/23 03:34:49;;;;;;;15.55;12.45;;;;;;;;;;5087833;28;20200;-76
2022/03/23 03:37:16;;;;;;;15.80;12.50;;;;;;;;;;5090441;28;20213;-78
2022/03/23 03:39:43;;;;;;;16.40;12.93;;;;;;;;;;5091103;28;20646;-77
2022/03/23 03:42:11;;;;;;;16.35;12.48;;;;;;;;;;5091410;28;20221;-78
2022/03/23 03:44:40;;;;;;;20.70;12.77;;;;;;;;;;5091558;28;20666;-75
2022/03/23 03:47:07;;;;;;;14.02;11.75;;;;;;;;;;5072993;28;20200;-76
2022/03/23 03:49:34;;;;;;;18.13;12.48;;;;;;;;;;5073312;28;20194;-77
2022/03/23 03:52:02;;;;;;;16.80;12.60;;;;;;;;;;5073291;28;20218;-77
2022/03/23 03:54:29;;;;;;;17.55;13.15;;;;;;;;;;5078599;28;20708;-77
2022/03/23 03:56:56;;;;;;;13.95;11.48;;;;;;;;;;5088572;28;20258;-76
2022/03/23 03:59:23;;;;;;;15.27;12.15;;;;;;;;;;5089506;28;20208;-77
2022/03/23 04:01:52;;;;;;;15.45;12.15;;;;;;;;;;5090946;28;20319;-78
2022/03/23 04:04:19;;;;;;;13.98;11.15;;;;;;;;;;5090809;28;20201;-77
2022/03/23 04:06:46;;;;;;;16.15;11.52;;;;;;;;;;5090910;28;20197;-77
2022/03/23 04:09:13;;;;;;;14.02;12.25;;;;;;;;;;5091744;28;20219;-77
2022/03/23 04:11:41;;;;;;;19.20;12.15;;;;;;;;;;5092005;28;20197;-77
2022/03/23 04:14:08;;;;;;;15.88;12.88;;;;;;;;;;5092792;28;20200;-76
2022/03/23 04:16:35;;;;;;;14.82;10.73;;;;;;;;;;5091762;28;20213;-77
2022/03/23 04:19:05;;;;;;;17.58;12.25;;;;;;;;;;5088249;28;20189;-76
2022/03/23 04:21:32;;;;;;;15.70;11.80;;;;;;;;;;5088677;28;20204;-78
2022/03/23 04:23:59;;;;;;;17.15;12.52;;;;;;;;;;5090357;28;20222;-78
2022/03/23 04:26:26;;;;;;;16.80;12.38;;;;;;;;;;5090601;28;20204;-77
2022/03/23 04:28:53;;;;;;;19.67;13.02;;;;;;;;;;5092919;28;20580;-76
2022/03/23 04:31:20;;;;;;;17.15;12.38;;;;;;;;;;5091029;28;20671;-76
2022/03/23 04:33:48;;;;;;;18.27;13.90;;;;;;;;;;5091905;28;20632;-77
2022/03/23 04:36:17;;;;;;;14.05;12.27;;;;;;;;;;5092516;28;20217;-76
2022/03/23 04:38:44;;;;;;;14.40;11.88;;;;;;;;;;5092661;28;20197;-76
2022/03/23 04:41:11;;;;;;;15.45;12.15;;;;;;;;;;5088153;28;20197;-77
2022/03/23 04:43:39;;;;;;;15.50;12.85;;;;;;;;;;5088160;28;20205;-75
2022/03/23 04:46:06;;;;;;;18.00;12.35;;;;;;;;;;5090111;28;20197;-77
2022/03/23 04:48:34;;;;;;;17.17;13.07;;;;;;;;;;5090649;28;20203;-78
2022/03/23 04:51:01;;;;;;;16.75;12.43;;;;;;;;;;5090934;28;20204;-76
2022/03/23 04:53:29;;;;;;;17.23;13.07;;;;;;;;;;5091865;28;20213;-77
2022/03/23 04:55:56;;;;;;;16.88;12.60;;;;;;;;;;5091144;28;20673;-76
2022/03/23 04:58:25;;;;;;;16.00;12.15;;;;;;;;;;5094745;28;20219;-77
2022/03/23 05:00:52;;;;;;;20.30;14.02;;;;;;;;;;5096496;28;20204;-76
2022/03/23 05:03:19;;;;;;;18.83;12.27;;;;;;;;;;5093026;28;20546;-75
2022/03/23 05:05:46;;;;;;;14.25;12.15;;;;;;;;;;5092018;28;20193;-76
2022/03/23 05:08:13;;;;;;;15.65;11.45;;;;;;;;;;5093689;28;20197;-76
2022/03/23 05:10:42;;;;;;;17.63;12.43;;;;;;;;;;5094038;28;20274;-77
2022/03/23 05:13:09;;;;;;;17.35;12.60;;;;;;;;;;5094139;28;20217;-77
2022/03/23 05:15:37;;;;;;;14.27;12.18;;;;;;;;;;5094907;28;20447;-76
2022/03/23 05:18:05;;;;;;;16.05;12.32;;;;;;;;;;5094587;28;20208;-77
2022/03/23 05:20:32;;;;;;;16.92;12.95;;;;;;;;;;5096105;28;20200;-76
2022/03/23 05:22:59;;;;;;;14.88;12.18;;;;;;;;;;5096264;28;20219;-76
2022/03/23 05:25:26;;;;;;;19.10;13.00;;;;;;;;;;5093278;28;20225;-77
2022/03/23 05:27:55;;;;;;;15.95;12.50;;;;;;;;;;5091715;28;20276;-76
2022/03/23 05:30:22;;;;;;;17.70;12.32;;;;;;;;;;5093157;28;20658;-76
2022/03/23 05:32:49;;;;;;;16.60;13.00;;;;;;;;;;5093775;28;20221;-77
2022/03/23 05:35:17;;;;;;;15.27;11.38;;;;;;;;;;5093982;28;20567;-76
2022/03/23 05:37:45;;;;;;;15.93;12.85;;;;;;;;;;5076119;28;20252;-76
2022/03/23 05:40:13;;;;;;;16.38;12.52;;;;;;;;;;5094417;28;20204;-76
2022/03/23 05:42:40;;;;;;;16.45;13.38;;;;;;;;;;5075102;28;20214;-76
2022/03/23 05:45:09;;;;;;;16.23;13.00;;;;;;;;;;5075379;28;20268;-78
2022/03/23 05:47:37;;;;;;;15.32;13.35;;;;;;;;;;5082964;28;20200;-77
2022/03/23 05:50:04;;;;;;;18.20;13.88;;;;;;;;;;5091447;28;20198;-76
2022/03/23 05:52:32;;;;;;;18.35;14.43;;;;;;;;;;5092172;28;20223;-77
2022/03/23 05:54:59;;;;;;;18.33;14.38;;;;;;;;;;5093369;28;20205;-76
2022/03/23 05:57:26;;;;;;;19.05;14.70;;;;;;;;;;5093078;28;20686;-77
2022/03/23 05:59:53;;;;;;;19.58;14.55;;;;;;;;;;5093662;28;20703;-77
2022/03/23 06:02:22;;;;;;;19.02;14.27;;;;;;;;;;5093746;28;20708;-76
2022/03/23 06:04:49;;;;;;;18.63;13.70;;;;;;;;;;5094762;28;20208;-75
2022/03/23 06:07:17;;;;;;;19.35;13.60;;;;;;;;;;5095087;28;20193;-76
2022/03/23 06:09:44;;;;;;;17.25;13.90;;;;;;;;;;5091000;28;20653;-77
2022/03/23 06:12:12;;;;;;;16.17;13.15;;;;;;;;;;5083746;28;20223;-77
2022/03/23 06:14:42;;;;;;;17.20;13.07;;;;;;;;;;5091527;28;20242;-76
2022/03/23 06:17:12;;;;;;;28.00;14.07;;;;;;;;;;5093124;28;20214;-76
2022/03/23 06:19:41;;;;;;;17.73;13.88;;;;;;;;;;5092844;28;20311;-76
2022/03/23 06:22:08;;;;;;;17.15;13.75;;;;;;;;;;5092788;28;20217;-76
2022/03/23 06:24:35;;;;;;;17.55;13.60;;;;;;;;;;5093482;28;20225;-77
2022/03/23 06:27:02;;;;;;;18.40;14.27;;;;;;;;;;5094037;28;20212;-75
2022/03/23 06:29:29;;;;;;;17.45;13.20;;;;;;;;;;5094773;28;20201;-76
2022/03/23 06:31:56;;;;;;;20.00;13.75;;;;;;;;;;5093504;28;20708;-77
2022/03/23 06:34:23;;;;;;;20.33;13.10;;;;;;;;;;5090094;28;20647;-77
2022/03/23 06:36:52;;;;;;;19.15;13.60;;;;;;;;;;5089908;28;20214;-75
2022/03/23 06:39:19;;;;;;;16.23;13.52;;;;;;;;;;5092515;28;20228;-77
2022/03/23 06:41:46;;;;;;;17.20;13.98;;;;;;;;;;5092158;28;20546;-77
2022/03/23 06:44:14;;;;;;;16.73;12.15;;;;;;;;;;5092429;28;20666;-76
2022/03/23 06:46:41;;;;;;;15.60;12.10;;;;;;;;;;5092314;28;20711;-78
2022/03/23 06:49:08;;;;;;;15.82;12.65;;;;;;;;;;5092229;28;20208;-76
2022/03/23 06:51:36;;;;;;;18.52;13.27;;;;;;;;;;5089716;28;20666;-77
2022/03/23 06:54:04;;;;;;;20.73;13.93;;;;;;;;;;5090772;28;20200;-76
2022/03/23 06:56:31;;;;;;;23.67;14.93;;;;;;;;;;5092179;28;20747;-77
2022/03/23 06:58:59;;;;;;;19.00;13.37;;;;;;;;;;5092114;28;20798;-77
2022/03/23 07:01:26;;;;;;;18.03;14.43;;;;;;;;;;5092139;28;20443;-75
2022/03/23 07:03:53;;;;;;;17.63;13.37;;;;;;;;;;5092547;28;20830;-75
2022/03/23 07:06:20;;;;;;;17.30;13.10;;;;;;;;;;5093305;28;20443;-76
2022/03/23 07:11:30;;;;;;;19.20;14.00;;;;;;;;;;5091843;28;20502;-77
2022/03/23 07:13:57;;;;;;;16.80;13.13;;;;;;;;;;5089529;28;20428;-77
2022/03/23 07:16:25;;;;;;;20.43;14.57;;;;;;;;;;5089799;28;20442;-75
2022/03/23 07:18:52;;;;;;;21.40;15.60;;;;;;;;;;5091981;28;20447;-76
2022/03/23 07:21:19;;;;;;;16.97;14.03;;;;;;;;;;5091480;28;20435;-76
2022/03/23 07:23:46;;;;;;;20.77;15.00;;;;;;;;;;5091979;28;20466;-77
2022/03/23 07:26:13;;;;;;;17.77;14.10;;;;;;;;;;5092778;28;20439;-76
2022/03/23 07:28:42;;;;;;;19.70;15.00;;;;;;;;;;5092892;28;20817;-77
2022/03/23 07:31:09;;;;;;;17.80;14.00;;;;;;;;;;5093331;28;20443;-76
2022/03/23 07:33:36;;;;;;;19.57;14.27;;;;;;;;;;5093522;28;20532;-76
2022/03/23 07:36:03;;;;;;;18.00;14.40;;;;;;;;;;5089163;28;20444;-76
2022/03/23 07:38:30;;;;;;;18.87;14.03;;;;;;;;;;5087832;28;20972;-78
2022/03/23 07:40:57;;;;;;;16.87;14.20;;;;;;;;;;5090529;28;20439;-76
2022/03/23 07:43:24;;;;;;;19.87;13.90;;;;;;;;;;5090521;28;20469;-76
2022/03/23 07:45:53;;;;;;;18.23;14.27;;;;;;;;;;5091477;28;20787;-76
2022/03/23 07:48:22;;;;;;;21.50;15.23;;;;;;;;;;5090987;28;20478;-75
2022/03/23 07:50:49;;;;;;;20.17;14.07;;;;;;;;;;5091745;28;20844;-78
2022/03/23 07:53:16;;;;;;;19.03;15.17;;;;;;;;;;5088319;28;20550;-78
2022/03/23 07:55:44;;;;;;;18.80;14.70;;;;;;;;;;5088698;28;20951;-76
2022/03/23 07:58:11;;;;;;;18.27;15.00;;;;;;;;;;5088751;28;20479;-80
2022/03/23 08:00:41;;;;;;;17.60;13.13;;;;;;;;;;5091598;28;20454;-79
2022/03/23 08:03:10;;;;;;;21.90;15.43;;;;;;;;;;5090475;28;20482;-77
2022/03/23 08:05:38;;;;;;;21.77;16.20;;;;;;;;;;5087174;28;20985;-81
2022/03/23 08:08:06;;;;;;;20.70;15.00;;;;;;;;;;5079959;28;20467;-78
2022/03/23 08:10:33;;;;;;;21.00;15.40;;;;;;;;;;5093071;28;20443;-77
2022/03/23 08:13:00;;;;;;;20.30;15.67;;;;;;;;;;5095378;28;20513;-77
2022/03/23 08:15:29;;;;;;;24.23;15.50;;;;;;;;;;5091590;28;20454;-77
2022/03/23 08:17:56;;;;;;;20.13;15.97;;;;;;;;;;5087713;28;20486;-80
2022/03/23 08:23:07;;;;;;;19.70;16.43;;;;;;;;;;5066804;28;20559;-78
2022/03/23 08:25:37;;;;;;;19.87;14.93;;;;;;;;;;5085558;28;20979;-75
2022/03/23 08:28:05;;;;;;;22.77;16.20;;;;;;;;;;5090032;28;20862;-79
2022/03/23 08:30:32;;;;;;;22.03;16.90;;;;;;;;;;5089644;28;20476;-79
2022/03/23 08:32:59;;;;;;;19.67;16.60;;;;;;;;;;5086561;28;20471;-78
2022/03/23 08:35:28;;;;;;;20.37;15.17;;;;;;;;;;5092652;28;20490;-79
2022/03/23 08:37:55;;;;;;;18.53;15.27;;;;;;;;;;5090879;28;20984;-77
2022/03/23 08:40:22;;;;;;;16.90;14.17;;;;;;;;;;5087580;28;20448;-74
2022/03/23 08:42:49;;;;;;;17.50;14.80;;;;;;;;;;5087781;28;20476;-76
2022/03/23 08:45:18;;;;;;;21.97;16.03;;;;;;;;;;5088227;28;21205;-76
2022/03/23 08:47:47;;;;;;;21.33;17.23;;;;;;;;;;5090361;28;20439;-76
2022/03/23 08:50:14;;;;;;;20.40;15.77;;;;;;;;;;5090339;28;20428;-75
2022/03/23 08:52:42;;;;;;;17.77;15.77;;;;;;;;;;5090935;28;20460;-76
2022/03/23 08:55:14;;;;;;;19.73;16.30;;;;;;;;;;5091667;28;20464;-75
2022/03/23 08:57:41;;;;;;;21.53;17.50;;;;;;;;;;5090073;28;20482;-76
2022/03/23 09:00:09;;;;;;;21.20;16.33;;;;;;;;;;5091512;28;20443;-79
2022/03/23 09:02:36;;;;;;;21.23;16.97;;;;;;;;;;5086872;28;20484;-79
2022/03/23 09:05:04;;;;;;;20.10;16.73;;;;;;;;;;5088015;28;20434;-77
2022/03/23 09:07:33;;;;;;;23.17;16.87;;;;;;;;;;5088206;28;20438;-77
2022/03/23 09:10:02;;;;;;;20.13;16.10;;;;;;;;;;5068829;28;20446;-78
2022/03/23 09:12:29;;;;;;;24.87;18.93;;;;;;;;;;5070109;28;20473;-77
2022/03/23 09:14:56;;;;;;;21.07;16.37;;;;;;;;;;5090305;28;20442;-77
2022/03/23 09:17:23;;;;;;;22.00;16.73;;;;;;;;;;5088102;28;20482;-75
2022/03/23 09:19:51;;;;;;;23.00;16.80;;;;;;;;;;5086934;28;20520;-76
2022/03/23 09:22:18;;;;;;;19.83;15.57;;;;;;;;;;5087804;28;20580;-79
2022/03/23 09:24:45;;;;;;;18.87;16.10;;;;;;;;;;5089253;28;20477;-81
2022/03/23 09:27:14;;;;;;;20.60;17.20;;;;;;;;;;5090055;28;20446;-77
2022/03/23 09:29:41;;;;;;;25.03;16.93;;;;;;;;;;5087690;28;20459;-75
2022/03/23 09:32:10;;;;;;;18.23;15.07;;;;;;;;;;5072144;28;20501;-79
2022/03/23 09:34:37;;;;;;;24.47;18.50;;;;;;;;;;5091212;28;20546;-79
2022/03/23 09:39:46;;;;;;;21.83;16.57;;;;;;;;;;5089756;28;20575;-76
2022/03/23 09:48:34;;;;;;;24.70;18.93;;;;;;;;;;5046111;28;20444;-78
2022/03/23 09:51:23;;;;;;;22.10;16.47;;;;;;;;;;5052913;28;20850;-79
2022/03/23 09:53:52;;;;;;;25.90;17.10;;;;;;;;;;5237043;22;20686;-78
2022/03/23 09:56:20;;;;;;;26.27;18.90;;;;;;;;;;5094912;28;20442;-78
2022/03/23 09:58:47;;;;;;;23.87;17.93;;;;;;;;;;5080746;28;20501;-81
2022/03/23 10:01:54;;;;;;;22.43;17.53;;;;;;;;;;5095766;28;20439;-77
2022/03/23 10:13:46;;;;;;;20.60;16.47;;;;;;;;;;5344819;22;21004;-76
2022/03/23 10:16:41;;;;;;;26.13;20.07;;;;;;;;;;5047064;28;20543;-77
2022/03/23 10:19:09;;;;;;;29.50;18.27;;;;;;;;;;5049418;28;21557;-78
2022/03/23 10:21:37;;;;;;;26.40;18.50;;;;;;;;;;5054563;28;20464;-79
2022/03/23 10:24:19;;;;;;;23.40;17.80;;;;;;;;;;5049192;28;20458;-83
2022/03/23 10:26:50;;;;;;;25.27;18.83;;;;;;;;;;5050270;28;20437;-78
2022/03/23 10:29:21;;;;;;;24.97;20.00;;;;;;;;;;5033826;28;20464;-78
2022/03/23 10:31:59;;;;;;;25.13;18.50;;;;;;;;;;5053073;28;20572;-79
2022/03/23 10:34:26;;;;;;;26.10;19.47;;;;;;;;;;5020807;28;20442;-77
2022/03/23 10:36:55;;;;;;;22.10;18.80;;;;;;;;;;5033706;28;21139;-81
2022/03/23 10:39:28;;;;;;;22.70;19.00;;;;;;;;;;5045025;28;20659;-76
2022/03/23 10:41:57;;;;;;;24.10;19.80;;;;;;;;;;5033390;28;20991;-77
2022/03/23 10:44:24;;;;;;;23.10;18.00;;;;;;;;;;5051545;28;20442;-77
2022/03/23 10:46:53;;;;;;;26.00;18.60;;;;;;;;;;5034011;28;20790;-78
2022/03/23 10:49:30;;;;;;;23.67;19.23;;;;;;;;;;5032905;28;20449;-79
2022/03/23 10:52:08;;;;;;;23.63;19.27;;;;;;;;;;5033381;28;20458;-77
2022/03/23 10:54:35;;;;;;;21.77;18.40;;;;;;;;;;5035636;28;20503;-80
2022/03/23 10:57:03;;;;;;;23.77;19.80;;;;;;;;;;5037044;28;20442;-80
2022/03/23 10:59:32;;;;;;;30.53;20.37;;;;;;;;;;5031696;28;20493;-80
2022/03/23 11:02:01;;;;;;;30.83;19.57;;;;;;;;;;5030933;28;20484;-76
2022/03/23 11:04:30;;;;;;;22.07;18.20;;;;;;;;;;5031317;28;20484;-77
2022/03/23 11:06:58;;;;;;;24.70;18.60;;;;;;;;;;5013979;28;20946;-79
2022/03/23 11:17:46;;;;;;;24.77;18.30;;;;;;;;;;5023143;28;20818;-80
2022/03/23 11:20:13;;;;;;;27.63;19.67;;;;;;;;;;5037247;28;20924;-78
2022/03/23 11:22:40;;;;;;;25.37;19.20;;;;;;;;;;5049231;28;20958;-77
2022/03/23 11:25:07;;;;;;;25.80;19.07;;;;;;;;;;5050778;28;20441;-76
2022/03/23 11:27:36;;;;;;;21.60;18.27;;;;;;;;;;5051106;28;20460;-79
2022/03/23 11:30:04;;;;;;;23.40;17.53;;;;;;;;;;5050953;28;20450;-77
2022/03/23 11:32:37;;;;;;;25.97;19.27;;;;;;;;;;5029289;28;20482;-80
2022/03/23 11:35:07;;;;;;;21.17;16.83;;;;;;;;;;5015294;28;20923;-78
2022/03/23 11:37:35;;;;;;;24.10;18.03;;;;;;;;;;5032169;28;20931;-80
2022/03/23 11:40:03;;;;;;;20.53;16.17;;;;;;;;;;5018310;28;20437;-78
2022/03/23 11:42:30;;;;;;;31.40;17.30;;;;;;;;;;5036844;28;20545;-76
2022/03/23 11:44:57;;;;;;;25.93;19.20;;;;;;;;;;5031625;28;20435;-80
2022/03/23 11:47:33;;;;;;;26.40;18.20;;;;;;;;;;5012233;28;20843;-83
2022/03/23 11:50:04;;;;;;;22.47;17.60;;;;;;;;;;5030104;28;20810;-76
2022/03/23 11:52:35;;;;;;;29.93;18.60;;;;;;;;;;5030618;28;20863;-78
2022/03/23 11:58:04;;;;;;;24.83;19.33;;;;;;;;;;5047199;28;20438;-79
2022/03/23 12:00:38;;;;;;;26.37;19.83;;;;;;;;;;5022297;28;20417;-78
2022/03/23 12:03:05;;;;;;;23.60;17.83;;;;;;;;;;5026619;28;20459;-77
2022/03/23 12:05:35;;;;;;;23.70;19.80;;;;;;;;;;5050100;28;20450;-80
2022/03/23 12:08:03;;;;;;;20.23;17.50;;;;;;;;;;5031809;28;20408;-78
2022/03/23 12:10:32;;;;;;;29.70;19.70;;;;;;;;;;5049654;28;20806;-78
2022/03/23 12:13:13;;;;;;;25.53;18.77;;;;;;;;;;5032581;28;20552;-84
2022/03/23 12:15:55;;;;;;;29.40;19.70;;;;;;;;;;5031955;28;20995;-86
2022/03/23 12:18:37;;;;;;;24.10;18.20;;;;;;;;;;5016519;28;20539;-78
2022/03/23 12:21:05;;;;;;;23.70;17.90;;;;;;;;;;5018749;28;20430;-76
2022/03/23 12:23:37;;;;;;;27.90;17.90;;;;;;;;;;5036230;28;20466;-77
2022/03/23 12:26:09;;;;;;;23.53;18.83;;;;;;;;;;5031288;28;20474;-80
2022/03/23 12:28:40;;;;;;;23.53;19.13;;;;;;;;;;5021461;28;20969;-81
2022/03/23 12:31:10;;;;;;;26.33;19.10;;;;;;;;;;5049961;28;20446;-84
2022/03/23 12:33:52;;;;;;;29.03;20.53;;;;;;;;;;5046938;28;20477;-80
2022/03/23 12:36:28;;;;;;;25.03;18.93;;;;;;;;;;5039899;28;20459;-80
2022/03/23 12:39:00;;;;;;;24.00;18.30;;;;;;;;;;5036697;28;20488;-78
2022/03/23 12:41:41;;;;;;;23.63;16.73;;;;;;;;;;5024807;28;20455;-81
2022/03/23 12:44:12;;;;;;;26.50;16.90;;;;;;;;;;5036047;28;20442;-80
2022/03/23 12:46:44;;;;;;;23.00;16.70;;;;;;;;;;5018337;28;20457;-76
2022/03/23 13:00:09;;;;;;;21.40;15.60;;;;;;;;;;5046985;28;20486;-74
2022/03/23 13:02:37;;;;;;;24.23;16.43;;;;;;;;;;5042845;28;20462;-75
2022/03/23 13:05:06;;;;;;;20.63;15.90;;;;;;;;;;5035292;28;20447;-78
2022/03/23 13:07:41;;;;;;;19.53;15.20;;;;;;;;;;5026132;28;20471;-78
2022/03/23 13:10:11;;;;;;;23.00;15.77;;;;;;;;;;5047772;28;20853;-82
2022/03/23 13:12:39;;;;;;;16.93;13.20;;;;;;;;;;5031003;28;20465;-80
2022/03/23 13:15:14;;;;;;;20.30;15.83;;;;;;;;;;5048496;28;20796;-81
2022/03/23 13:17:42;;;;;;;19.23;14.83;;;;;;;;;;5049249;28;20442;-78
2022/03/23 13:20:10;;;;;;;19.67;13.90;;;;;;;;;;5053434;28;20485;-81
2022/03/23 13:22:38;;;;;;;17.70;13.87;;;;;;;;;;5054793;28;20448;-82
2022/03/23 13:25:07;;;;;;;18.73;15.27;;;;;;;;;;5050488;28;20488;-80
2022/03/23 13:27:37;;;;;;;24.13;16.50;;;;;;;;;;5021683;28;20409;-81
2022/03/23 13:30:06;;;;;;;22.87;16.33;;;;;;;;;;5043306;28;20450;-78
2022/03/23 13:32:34;;;;;;;21.57;15.80;;;;;;;;;;5035139;28;20811;-82
2022/03/23 13:35:02;;;;;;;20.10;15.40;;;;;;;;;;5051949;28;20458;-78
2022/03/23 13:37:30;;;;;;;24.20;15.77;;;;;;;;;;5053117;28;20401;-85
2022/03/23 13:39:57;;;;;;;21.47;17.13;;;;;;;;;;5051894;28;20484;-78
2022/03/23 13:45:09;;;;;;;21.53;16.47;;;;;;;;;;5052182;28;20418;-78
2022/03/23 13:47:37;;;;;;;21.20;15.80;;;;;;;;;;5035469;28;20448;-76
2022/03/23 13:50:05;;;;;;;22.93;17.47;;;;;;;;;;5021222;28;20400;-76
2022/03/23 13:52:32;;;;;;;20.30;15.33;;;;;;;;;;5041933;28;20977;-79
2022/03/23 13:55:00;;;;;;;22.20;16.93;;;;;;;;;;5052248;28;21020;-77
2022/03/23 13:57:30;;;;;;;21.50;15.27;;;;;;;;;;5052590;28;20461;-79
2022/03/23 13:59:57;;;;;;;18.10;14.73;;;;;;;;;;5034169;28;20490;-78
2022/03/23 14:02:26;;;;;;;23.00;14.07;;;;;;;;;;5050870;28;20829;-77
2022/03/23 14:04:53;;;;;;;20.03;14.80;;;;;;;;;;5052009;28;20520;-78
2022/03/23 14:07:21;;;;;;;19.83;14.10;;;;;;;;;;5053691;28;20467;-76
2022/03/23 14:09:48;;;;;;;19.43;14.30;;;;;;;;;;5052802;28;20856;-77
2022/03/23 14:12:17;;;;;;;24.90;15.77;;;;;;;;;;5041728;28;20439;-78
2022/03/23 14:14:45;;;;;;;19.97;14.27;;;;;;;;;;5038541;28;20451;-76
2022/03/23 14:17:16;;;;;;;19.77;14.40;;;;;;;;;;5032550;28;20537;-79
2022/03/23 14:19:46;;;;;;;22.90;16.37;;;;;;;;;;5014951;28;20813;-78
2022/03/23 14:24:57;;;;;;;22.10;16.20;;;;;;;;;;5027580;28;20435;-78
2022/03/23 14:27:24;;;;;;;23.07;16.07;;;;;;;;;;5013012;28;20458;-77
2022/03/23 14:30:06;;;;;;;18.97;15.40;;;;;;;;;;5024613;28;20830;-76
2022/03/23 14:32:35;;;;;;;22.07;16.20;;;;;;;;;;4999429;28;20537;-76
2022/03/23 14:35:03;;;;;;;20.43;16.03;;;;;;;;;;5005111;28;20449;-75
2022/03/23 14:37:34;;;;;;;26.23;16.03;;;;;;;;;;5017700;28;21466;-76
2022/03/23 14:40:02;;;;;;;17.30;14.43;;;;;;;;;;5008879;28;20488;-76
2022/03/23 14:42:33;;;;;;;23.13;15.50;;;;;;;;;;5019299;28;20982;-74
2022/03/23 14:45:01;;;;;;;24.73;14.20;;;;;;;;;;5052054;28;20753;-76
2022/03/23 14:47:43;;;;;;;21.50;15.40;;;;;;;;;;5068721;28;20449;-77
2022/03/23 14:50:12;;;;;;;19.87;14.47;;;;;;;;;;5037562;28;20489;-77
2022/03/23 14:52:39;;;;;;;18.87;14.73;;;;;;;;;;5047678;28;20455;-74
2022/03/23 14:55:06;;;;;;;18.30;13.07;;;;;;;;;;5037545;28;20442;-74
2022/03/23 14:57:34;;;;;;;18.10;13.90;;;;;;;;;;5034529;28;20522;-77
2022/03/23 15:00:04;;;;;;;23.97;13.80;;;;;;;;;;5035071;28;20495;-75
2022/03/23 15:02:32;;;;;;;22.33;14.27;;;;;;;;;;5049591;28;20899;-75
2022/03/23 15:04:59;;;;;;;20.73;13.87;;;;;;;;;;5050544;28;20431;-75
2022/03/23 15:15:42;;;;;;;23.63;13.30;;;;;;;;;;5044752;28;20426;-75
2022/03/23 15:18:09;;;;;;;20.23;13.53;;;;;;;;;;5037123;28;20926;-74
2022/03/23 15:20:37;;;;;;;16.40;12.63;;;;;;;;;;5044411;28;20449;-76
2022/03/23 15:23:07;;;;;;;19.67;13.80;;;;;;;;;;5049114;28;20473;-76
2022/03/23 15:25:35;;;;;;;18.90;12.40;;;;;;;;;;5032054;28;20446;-77
2022/03/23 15:28:03;;;;;;;16.00;11.50;;;;;;;;;;5049388;28;20780;-75
2022/03/23 15:30:30;;;;;;;16.97;12.77;;;;;;;;;;5051125;28;20541;-77
2022/03/23 15:32:57;;;;;;;21.83;13.73;;;;;;;;;;5050455;28;20564;-79
2022/03/23 15:35:25;;;;;;;16.67;12.90;;;;;;;;;;5052294;28;20449;-79
2022/03/23 15:37:52;;;;;;;19.00;13.33;;;;;;;;;;5050800;28;20471;-76